Main page
METAR-TAF:

METAR-TAF

Airports :

Leipzig–Altenburg Airport

Altenburg, Germany

latitude: 50-58N, longitude: 012-30E, elevation: 195 m

Current weather observation

The report was made 44 minutes ago, at 07:50 UTC
Wind 4 kt from the West/Southwest
Temperature 6°C
Humidity 75%
Pressure 1013 hPa
Visibility 10 km or more
Overcast at a height of 3300 ft

METAR: EDAC 030750Z 25004KT 9999 OVC033 06/02 Q1013

Time: 10:34 (08:34 UTC)

Forecast

The report was made 1 hour and 1 minutes ago, at 07:33 UTC
Forecast valid from 03 at 07 UTC to 03 at 15 UTC
Wind 8 kt from the West/Southwest
Visibility 10 km or more
Broken clouds at a height of 3500 ft

TAF: EDAC 030733Z 0307/0315 25008KT 9999 BKN035

Weather observations and forecasts of more than 4000 airports (METAR and TAF reports).

The available stations are represented by yellow and red dots on the map.

Hover mouse over dot to see the name of the station.

Then click to see weather observations and forecasts.

To change the map : click on the green buttons with a black cross to zoom in, on the green button with a dash to zoom out, or on the green arrows for adjacent maps.


METAR-TAF: